ADDS METAR Data INFO
IDs: Format: Raw Decoded Include TAF

Data at: 0318 UTC 20 Jul 2018

KW29 200255Z AUTO 14006KT 10SM CLR 24/17 A3009 RMK AO2
KW29 200235Z AUTO 12006KT 10SM CLR 23/18 A3009 RMK AO2
KW29 200215Z AUTO 00000KT 10SM CLR 22/15 A3008 RMK AO2
KW29 200155Z AUTO 00000KT 10SM CLR 23/15 A3008 RMK AO2
KW29 200135Z AUTO 00000KT 10SM CLR 23/15 A3008 RMK AO2
KW29 200115Z AUTO 00000KT 10SM CLR 23/16 A3007 RMK AO2
KW29 200055Z AUTO 00000KT 10SM CLR 24/14 A3006 RMK AO2
KW29 200035Z AUTO 00000KT 10SM CLR 25/15 A3006 RMK AO2
KW29 200015Z AUTO 19003KT 10SM CLR 27/13 A3006 RMK AO2
KW29 192355Z AUTO 19004KT 10SM CLR 28/12 A3006 RMK AO2
KW29 192335Z AUTO 19004KT 10SM CLR 28/13 A3006 RMK AO2
KW29 192315Z AUTO 20005KT 10SM CLR 29/13 A3006 RMK AO2
KW29 192255Z AUTO 21005KT 10SM CLR 29/13 A3006 RMK AO2
KW29 192235Z AUTO 19005KT 10SM CLR 29/13 A3006 RMK AO2
KW29 192215Z AUTO 20004KT 10SM CLR 29/14 A3006 RMK AO2
KW29 192155Z AUTO 22004KT 10SM CLR 29/15 A3006 RMK AO2
KW29 192130Z AUTO 23004KT 10SM CLR 30/14 A3006 RMK AO2
KW29 192115Z AUTO 20005KT 10SM CLR 30/14 A3006 RMK AO2
KW29 192055Z AUTO 18003KT 7SM CLR 29/14 A3007 RMK AO2
KW29 192035Z AUTO 00000KT 10SM CLR 29/14 A3007 RMK AO2
KW29 192015Z AUTO 32003KT 10SM CLR 29/13 A3007 RMK AO2
KW29 191955Z AUTO 05003KT 10SM CLR 29/13 A3008 RMK AO2
KW29 191935Z AUTO 28003KT 10SM CLR 29/13 A3008 RMK AO2
KW29 191915Z AUTO 00000KT 10SM CLR 28/13 A3008 RMK AO2
KW29 191855Z AUTO 01005KT 10SM CLR 28/12 A3009 RMK AO2
KW29 191835Z AUTO 00000KT 10SM CLR 28/13 A3009 RMK AO2
KW29 191815Z AUTO 33005KT 10SM CLR 27/14 A3010 RMK AO2
KW29 191755Z AUTO 32006KT 10SM CLR 27/15 A3010 RMK AO2
KW29 191735Z AUTO 33006KT 10SM CLR 27/15 A3010 RMK AO2
KW29 191715Z AUTO 32007KT 10SM CLR 27/16 A3010 RMK AO2
KW29 191655Z AUTO 31006KT 10SM CLR 26/15 A3011 RMK AO2
KW29 191635Z AUTO 31007KT 10SM CLR 26/15 A3011 RMK AO2
KW29 191615Z AUTO 34007KT 10SM CLR 26/15 A3011 RMK AO2
KW29 191555Z AUTO 34007KT 10SM CLR 26/15 A3011 RMK AO2
KW29 191535Z AUTO 34006KT 10SM CLR 26/14 A3011 RMK AO2
KW29 191515Z AUTO 35004KT 10SM CLR 26/13 A3011 RMK AO2
KW29 191455Z AUTO 02004KT 10SM CLR 26/12 A3011 RMK AO2
KW29 191435Z AUTO 03005KT 10SM CLR 26/12 A3011 RMK AO2
KW29 191415Z AUTO 04004KT 10SM CLR 25/12 A3011 RMK AO2
KW29 191355Z AUTO 09006KT 10SM CLR 25/12 A3011 RMK AO2
KW29 191335Z AUTO 03006KT 10SM CLR 25/12 A3010 RMK AO2
KW29 191315Z AUTO 05003KT 10SM CLR 24/12 A3010 RMK AO2
KW29 191255Z AUTO 06005KT 10SM CLR 24/13 A3010 RMK AO2
KW29 191235Z AUTO 04005KT 10SM CLR 23/13 A3009 RMK AO2
KW29 191215Z AUTO 05006KT 10SM CLR 23/14 A3008 RMK AO2
KW29 191155Z AUTO 02004KT 10SM CLR 22/15 A3008 RMK AO2
KW29 191135Z AUTO 02004KT 10SM CLR 22/14 A3007 RMK AO2
KW29 191115Z AUTO 02004KT 10SM CLR 22/14 A3007 RMK AO2
KW29 191055Z AUTO 04004KT 10SM CLR 22/14 A3006 RMK AO2
KW29 191035Z AUTO 04006KT 10SM CLR 21/14 A3005 RMK AO2
KW29 191015Z AUTO 03004KT 10SM SCT080 21/15 A3005 RMK AO2
KW29 190955Z AUTO 35003KT 10SM BKN080 21/15 A3005 RMK AO2
KW29 190935Z AUTO 00000KT 10SM SCT080 21/15 A3005 RMK AO2
KW29 190915Z AUTO 07006KT 10SM CLR 22/15 A3004 RMK AO2
KW29 190855Z AUTO 05004KT 10SM SCT080 22/15 A3003 RMK AO2
KW29 190835Z AUTO 06005KT 10SM SCT080 22/15 A3003 RMK AO2
KW29 190815Z AUTO 07006KT 10SM SCT080 22/15 A3003 RMK AO2
KW29 190755Z AUTO 07006KT 10SM SCT080 23/15 A3003 RMK AO2
KW29 190735Z AUTO 07006KT 10SM CLR 23/15 A3003 RMK AO2
KW29 190720Z AUTO 07006KT 10SM CLR 23/15 A3002 RMK AO2
KW29 190705Z AUTO 08008KT 10SM CLR 23/15 A3002 RMK AO2
KW29 190645Z AUTO 07005KT 10SM CLR 23/16 A3002 RMK AO2
KW29 190625Z AUTO 06006KT 10SM CLR 23/16 A3002 RMK AO2
KW29 190605Z AUTO 05004KT 10SM CLR 23/16 A3001 RMK AO2
KW29 190545Z AUTO 04005KT 10SM CLR 24/17 A3001 RMK AO2
KW29 190525Z AUTO 03004KT 10SM CLR 23/17 A3001 RMK AO2
KW29 190505Z AUTO 03003KT 10SM CLR 24/16 A3000 RMK AO2
KW29 190445Z AUTO 03003KT 10SM CLR 24/16 A3000 RMK AO2
KW29 190425Z AUTO 03003KT 10SM CLR 24/16 A2999 RMK AO2
KW29 190405Z AUTO 02004KT 10SM CLR 24/17 A2999 RMK AO2
KW29 190350Z AUTO 02004KT 10SM CLR 24/17 A2999 RMK AO2
KW29 190335Z AUTO 02003KT 10SM CLR 24/17 A2998 RMK AO2
KW29 190315Z AUTO 03004KT 10SM CLR 24/17 A2998 RMK AO2
KW29 190255Z AUTO 03003KT 10SM CLR 25/17 A2998 RMK AO2
KW29 190235Z AUTO 02004KT 10SM CLR 25/17 A2998 RMK AO2
KW29 190215Z AUTO 03003KT 10SM CLR 25/17 A2997 RMK AO2
KW29 190155Z AUTO 04003KT 10SM CLR 25/16 A2997 RMK AO2
KW29 190135Z AUTO 03004KT 10SM CLR 26/16 A2996 RMK AO2
KW29 190115Z AUTO 02004KT 10SM CLR 26/16 A2996 RMK AO2
KW29 190055Z AUTO 02004KT 10SM CLR 26/16 A2995 RMK AO2
KW29 190035Z AUTO 02004KT 10SM CLR 26/16 A2994 RMK AO2
KW29 190015Z AUTO 02003KT 10SM CLR 27/16 A2994 RMK AO2
KW29 182355Z AUTO 02003KT 10SM CLR 27/16 A2994 RMK AO2
KW29 182335Z AUTO 02005KT 10SM CLR 28/16 A2993 RMK AO2
KW29 182315Z AUTO 02004KT 10SM CLR 28/17 A2993 RMK AO2
KW29 182255Z AUTO 33004KT 10SM CLR 28/15 A2993 RMK AO2
KW29 182235Z AUTO 34004KT 10SM CLR 29/15 A2992 RMK AO2
KW29 182215Z AUTO 33005KT 10SM CLR 29/15 A2992 RMK AO2
KW29 182155Z AUTO 33006KT 10SM CLR 29/14 A2992 RMK AO2
KW29 182135Z AUTO 34004KT 10SM CLR 29/14 A2992 RMK AO2
KW29 182115Z AUTO 36004KT 10SM CLR 29/14 A2992 RMK AO2
KW29 182055Z AUTO 01004KT 10SM CLR 29/14 A2992 RMK AO2
KW29 182035Z AUTO 34005KT 10SM CLR 29/13 A2993 RMK AO2
KW29 182015Z AUTO 34007KT 10SM CLR 29/14 A2993 RMK AO2
KW29 181955Z AUTO 02006KT 10SM CLR 29/14 A2993 RMK AO2
KW29 181935Z AUTO 01007KT 310V040 10SM CLR 29/15 A2994 RMK AO2
KW29 181915Z AUTO 35007KT 320V020 10SM CLR 29/15 A2994 RMK AO2
KW29 181855Z AUTO 34005KT 10SM CLR 29/15 A2994 RMK AO2
KW29 181835Z AUTO 33005KT 10SM CLR 29/15 A2994 RMK AO2
KW29 181815Z AUTO 35005KT 10SM CLR 28/14 A2994 RMK AO2
KW29 181755Z AUTO 34007KT 10SM CLR 29/14 A2994 RMK AO2
KW29 181735Z AUTO 32007KT 290V360 10SM CLR 29/14 A2994 RMK AO2
KW29 181715Z AUTO 34009KT 10SM CLR 28/14 A2994 RMK AO2
KW29 181655Z AUTO 34006KT 10SM CLR 28/14 A2994 RMK AO2
KW29 181635Z AUTO 34008KT 10SM CLR 28/14 A2994 RMK AO2
KW29 181615Z AUTO 32005KT 10SM CLR 27/16 A2994 RMK AO2
KW29 181555Z AUTO 33005KT 10SM CLR 27/16 A2994 RMK AO2
KW29 181535Z AUTO 34007KT 10SM CLR 27/16 A2995 RMK AO2